Stevensville, Michigan
Current Conditions -  °F | °C
As of 8:53 AM on Friday 31 Oct 2014 (Local Time) from KBEH Reporting Station
Light Rain Light Rain  
Wind Chill: 32°   Ceiling: 2700
Heat Index: 39°   Visibility: 6mi
Dew Point: 35°   Wind: 12mph
Humidity: 86%   Direction: 330°NNW
Pressure: 29.98"   Gusts: 22mph
Location:  42.01°N, 86.52°W
Report Text: KBEH 311253Z AUTO 33010G19KT 300V020 6SM -RA BR FEW012 SCT018 OVC027 04/02 A2998 RMK AO2 SLP157 P0002 T00390017
Loading
Personal Weather Stations






























Interactive Weather Map
Tropical Storm Tracking
New forecast layout! Learn more

10-Day Weather Forecast

Advertisements
Track Severe Weather on mobile